sensor_id;sensor_type;location;lat;lon;timestamp;temperature;humidity
68485;DHT22;55472;50.060;21.960;2022-07-10T00:00:40;16.20;77.00
68485;DHT22;55472;50.060;21.960;2022-07-10T00:03:06;16.20;76.30
68485;DHT22;55472;50.060;21.960;2022-07-10T00:05:33;16.10;76.10
68485;DHT22;55472;50.060;21.960;2022-07-10T00:08:02;16.10;76.10
68485;DHT22;55472;50.060;21.960;2022-07-10T00:10:29;16.10;75.10
68485;DHT22;55472;50.060;21.960;2022-07-10T00:12:55;16.10;75.50
68485;DHT22;55472;50.060;21.960;2022-07-10T00:15:22;16.10;74.90
68485;DHT22;55472;50.060;21.960;2022-07-10T00:17:48;16.10;74.80
68485;DHT22;55472;50.060;21.960;2022-07-10T00:20:15;16.10;74.10
68485;DHT22;55472;50.060;21.960;2022-07-10T00:22:41;16.10;74.40
68485;DHT22;55472;50.060;21.960;2022-07-10T00:25:10;16.10;73.90
68485;DHT22;55472;50.060;21.960;2022-07-10T00:27:37;16.20;73.60
68485;DHT22;55472;50.060;21.960;2022-07-10T00:30:03;16.20;73.20
68485;DHT22;55472;50.060;21.960;2022-07-10T00:32:30;16.20;73.10
68485;DHT22;55472;50.060;21.960;2022-07-10T00:34:55;16.20;73.10
68485;DHT22;55472;50.060;21.960;2022-07-10T00:37:21;16.10;73.20
68485;DHT22;55472;50.060;21.960;2022-07-10T00:39:48;16.10;73.20
68485;DHT22;55472;50.060;21.960;2022-07-10T00:42:15;16.10;73.10
68485;DHT22;55472;50.060;21.960;2022-07-10T00:44:42;16.10;72.70
68485;DHT22;55472;50.060;21.960;2022-07-10T00:47:10;16.10;72.90
68485;DHT22;55472;50.060;21.960;2022-07-10T00:49:38;16.10;73.00
68485;DHT22;55472;50.060;21.960;2022-07-10T00:52:10;16.10;72.60
68485;DHT22;55472;50.060;21.960;2022-07-10T00:54:41;16.10;72.50
68485;DHT22;55472;50.060;21.960;2022-07-10T00:57:08;16.10;72.50
68485;DHT22;55472;50.060;21.960;2022-07-10T00:59:35;16.10;72.40
68485;DHT22;55472;50.060;21.960;2022-07-10T01:02:05;16.10;72.20
68485;DHT22;55472;50.060;21.960;2022-07-10T01:04:32;16.10;72.10
68485;DHT22;55472;50.060;21.960;2022-07-10T01:06:58;16.10;71.90
68485;DHT22;55472;50.060;21.960;2022-07-10T01:09:24;16.00;72.00
68485;DHT22;55472;50.060;21.960;2022-07-10T01:11:51;16.00;71.90
68485;DHT22;55472;50.060;21.960;2022-07-10T01:14:17;16.00;72.00
68485;DHT22;55472;50.060;21.960;2022-07-10T01:16:43;15.90;72.10
68485;DHT22;55472;50.060;21.960;2022-07-10T01:19:10;15.90;72.10
68485;DHT22;55472;50.060;21.960;2022-07-10T01:21:37;15.80;72.10
68485;DHT22;55472;50.060;21.960;2022-07-10T01:24:08;15.80;72.20
68485;DHT22;55472;50.060;21.960;2022-07-10T01:26:35;15.80;72.20
68485;DHT22;55472;50.060;21.960;2022-07-10T01:29:06;15.80;72.30
68485;DHT22;55472;50.060;21.960;2022-07-10T01:31:33;15.70;72.30
68485;DHT22;55472;50.060;21.960;2022-07-10T01:34:00;15.80;72.10
68485;DHT22;55472;50.060;21.960;2022-07-10T01:36:28;15.70;72.10
68485;DHT22;55472;50.060;21.960;2022-07-10T01:38:56;15.70;72.30
68485;DHT22;55472;50.060;21.960;2022-07-10T01:41:24;15.60;72.20
68485;DHT22;55472;50.060;21.960;2022-07-10T01:43:51;15.60;72.40
68485;DHT22;55472;50.060;21.960;2022-07-10T01:46:18;15.60;72.20
68485;DHT22;55472;50.060;21.960;2022-07-10T01:48:44;15.50;72.10
68485;DHT22;55472;50.060;21.960;2022-07-10T01:51:11;15.40;72.30
68485;DHT22;55472;50.060;21.960;2022-07-10T01:53:37;15.40;72.70
68485;DHT22;55472;50.060;21.960;2022-07-10T01:56:06;15.40;72.50
68485;DHT22;55472;50.060;21.960;2022-07-10T01:58:33;15.30;72.50
68485;DHT22;55472;50.060;21.960;2022-07-10T02:01:00;15.30;72.50
68485;DHT22;55472;50.060;21.960;2022-07-10T02:03:27;15.20;73.00
68485;DHT22;55472;50.060;21.960;2022-07-10T02:06:11;15.20;73.20
68485;DHT22;55472;50.060;21.960;2022-07-10T02:08:37;15.10;73.40
68485;DHT22;55472;50.060;21.960;2022-07-10T02:11:03;15.10;73.00
68485;DHT22;55472;50.060;21.960;2022-07-10T02:13:29;15.00;72.70
68485;DHT22;55472;50.060;21.960;2022-07-10T02:15:56;15.00;72.60
68485;DHT22;55472;50.060;21.960;2022-07-10T02:18:22;15.00;72.90
68485;DHT22;55472;50.060;21.960;2022-07-10T02:20:48;15.00;73.00
68485;DHT22;55472;50.060;21.960;2022-07-10T02:23:15;15.00;72.90
68485;DHT22;55472;50.060;21.960;2022-07-10T02:25:41;15.00;73.10
68485;DHT22;55472;50.060;21.960;2022-07-10T02:28:08;15.00;73.60
68485;DHT22;55472;50.060;21.960;2022-07-10T02:30:34;15.10;73.30
68485;DHT22;55472;50.060;21.960;2022-07-10T02:33:01;15.10;73.70
68485;DHT22;55472;50.060;21.960;2022-07-10T02:35:27;15.10;73.70
68485;DHT22;55472;50.060;21.960;2022-07-10T02:37:53;15.20;74.20
68485;DHT22;55472;50.060;21.960;2022-07-10T02:40:19;15.20;74.70
68485;DHT22;55472;50.060;21.960;2022-07-10T02:42:45;15.30;75.10
68485;DHT22;55472;50.060;21.960;2022-07-10T02:45:11;15.30;75.60
68485;DHT22;55472;50.060;21.960;2022-07-10T02:47:37;15.40;76.10
68485;DHT22;55472;50.060;21.960;2022-07-10T02:50:03;15.40;75.90
68485;DHT22;55472;50.060;21.960;2022-07-10T02:52:29;15.50;76.70
68485;DHT22;55472;50.060;21.960;2022-07-10T02:54:57;15.50;76.60
68485;DHT22;55472;50.060;21.960;2022-07-10T02:57:23;15.50;76.80
68485;DHT22;55472;50.060;21.960;2022-07-10T02:59:50;15.60;76.50
68485;DHT22;55472;50.060;21.960;2022-07-10T03:02:16;15.60;76.70
68485;DHT22;55472;50.060;21.960;2022-07-10T03:04:42;15.60;76.70
68485;DHT22;55472;50.060;21.960;2022-07-10T03:07:08;15.60;76.60
68485;DHT22;55472;50.060;21.960;2022-07-10T03:09:34;15.60;76.50
68485;DHT22;55472;50.060;21.960;2022-07-10T03:12:00;15.60;76.60
68485;DHT22;55472;50.060;21.960;2022-07-10T03:14:26;15.60;77.20
68485;DHT22;55472;50.060;21.960;2022-07-10T03:16:52;15.50;77.50
68485;DHT22;55472;50.060;21.960;2022-07-10T03:19:18;15.50;78.10
68485;DHT22;55472;50.060;21.960;2022-07-10T03:21:44;15.50;78.50
68485;DHT22;55472;50.060;21.960;2022-07-10T03:24:11;15.50;78.70
68485;DHT22;55472;50.060;21.960;2022-07-10T03:26:37;15.50;78.70
68485;DHT22;55472;50.060;21.960;2022-07-10T03:29:03;15.50;78.70
68485;DHT22;55472;50.060;21.960;2022-07-10T03:31:29;15.50;78.80
68485;DHT22;55472;50.060;21.960;2022-07-10T03:33:55;15.40;79.10
68485;DHT22;55472;50.060;21.960;2022-07-10T03:36:21;15.50;79.10
68485;DHT22;55472;50.060;21.960;2022-07-10T03:38:47;15.40;79.10
68485;DHT22;55472;50.060;21.960;2022-07-10T03:41:14;15.40;79.50
68485;DHT22;55472;50.060;21.960;2022-07-10T03:43:40;15.40;79.70
68485;DHT22;55472;50.060;21.960;2022-07-10T03:46:06;15.40;79.00
68485;DHT22;55472;50.060;21.960;2022-07-10T03:48:32;15.30;79.50
68485;DHT22;55472;50.060;21.960;2022-07-10T03:50:59;15.20;79.70
68485;DHT22;55472;50.060;21.960;2022-07-10T03:53:25;15.20;80.10
68485;DHT22;55472;50.060;21.960;2022-07-10T03:55:51;15.20;80.60
68485;DHT22;55472;50.060;21.960;2022-07-10T03:58:17;15.20;80.90
68485;DHT22;55472;50.060;21.960;2022-07-10T04:00:43;15.20;80.80
68485;DHT22;55472;50.060;21.960;2022-07-10T04:03:09;15.20;81.10
68485;DHT22;55472;50.060;21.960;2022-07-10T04:05:36;15.20;80.60
68485;DHT22;55472;50.060;21.960;2022-07-10T04:08:03;15.20;80.80
68485;DHT22;55472;50.060;21.960;2022-07-10T04:10:30;15.20;81.40
68485;DHT22;55472;50.060;21.960;2022-07-10T04:12:57;15.20;81.60
68485;DHT22;55472;50.060;21.960;2022-07-10T04:15:23;15.30;81.30
68485;DHT22;55472;50.060;21.960;2022-07-10T04:17:50;15.30;80.30
68485;DHT22;55472;50.060;21.960;2022-07-10T04:20:19;15.30;80.30
68485;DHT22;55472;50.060;21.960;2022-07-10T04:22:46;15.30;80.50
68485;DHT22;55472;50.060;21.960;2022-07-10T04:25:12;15.30;80.20
68485;DHT22;55472;50.060;21.960;2022-07-10T04:27:39;15.20;80.20
68485;DHT22;55472;50.060;21.960;2022-07-10T04:30:05;15.20;80.10
68485;DHT22;55472;50.060;21.960;2022-07-10T04:32:32;15.20;80.20
68485;DHT22;55472;50.060;21.960;2022-07-10T04:34:58;15.10;80.60
68485;DHT22;55472;50.060;21.960;2022-07-10T04:37:26;15.10;80.80
68485;DHT22;55472;50.060;21.960;2022-07-10T04:39:53;15.10;80.60
68485;DHT22;55472;50.060;21.960;2022-07-10T04:42:19;15.10;80.90
68485;DHT22;55472;50.060;21.960;2022-07-10T04:44:45;15.20;81.40
68485;DHT22;55472;50.060;21.960;2022-07-10T04:47:11;15.20;80.90
68485;DHT22;55472;50.060;21.960;2022-07-10T04:49:38;15.30;80.70
68485;DHT22;55472;50.060;21.960;2022-07-10T04:52:04;15.30;80.20
68485;DHT22;55472;50.060;21.960;2022-07-10T04:54:30;15.30;80.30
68485;DHT22;55472;50.060;21.960;2022-07-10T04:56:56;15.40;80.30
68485;DHT22;55472;50.060;21.960;2022-07-10T04:59:22;15.40;79.90
68485;DHT22;55472;50.060;21.960;2022-07-10T05:01:48;15.50;80.10
68485;DHT22;55472;50.060;21.960;2022-07-10T05:04:14;15.50;80.30
68485;DHT22;55472;50.060;21.960;2022-07-10T05:06:40;15.60;80.20
68485;DHT22;55472;50.060;21.960;2022-07-10T05:09:06;15.70;79.60
68485;DHT22;55472;50.060;21.960;2022-07-10T05:11:32;15.90;79.00
68485;DHT22;55472;50.060;21.960;2022-07-10T05:13:58;16.10;78.60
68485;DHT22;55472;50.060;21.960;2022-07-10T05:16:24;16.20;77.50
68485;DHT22;55472;50.060;21.960;2022-07-10T05:18:50;16.40;77.20
68485;DHT22;55472;50.060;21.960;2022-07-10T05:21:16;16.60;76.50
68485;DHT22;55472;50.060;21.960;2022-07-10T05:23:42;16.70;75.00
68485;DHT22;55472;50.060;21.960;2022-07-10T05:26:09;16.80;74.70
68485;DHT22;55472;50.060;21.960;2022-07-10T05:28:35;16.90;74.40
68485;DHT22;55472;50.060;21.960;2022-07-10T05:31:01;17.00;73.30
68485;DHT22;55472;50.060;21.960;2022-07-10T05:33:27;17.10;73.10
68485;DHT22;55472;50.060;21.960;2022-07-10T05:35:54;17.20;72.40
68485;DHT22;55472;50.060;21.960;2022-07-10T05:38:20;17.20;71.80
68485;DHT22;55472;50.060;21.960;2022-07-10T05:40:46;17.30;70.80
68485;DHT22;55472;50.060;21.960;2022-07-10T05:43:12;17.30;71.40
68485;DHT22;55472;50.060;21.960;2022-07-10T05:45:39;17.30;71.60
68485;DHT22;55472;50.060;21.960;2022-07-10T05:48:05;17.30;71.80
68485;DHT22;55472;50.060;21.960;2022-07-10T05:50:31;17.40;71.10
68485;DHT22;55472;50.060;21.960;2022-07-10T05:52:57;17.40;70.60
68485;DHT22;55472;50.060;21.960;2022-07-10T05:55:24;17.40;70.60
68485;DHT22;55472;50.060;21.960;2022-07-10T05:57:49;17.40;70.20
68485;DHT22;55472;50.060;21.960;2022-07-10T06:00:16;17.40;69.70
68485;DHT22;55472;50.060;21.960;2022-07-10T06:02:42;17.30;69.30
68485;DHT22;55472;50.060;21.960;2022-07-10T06:05:08;17.30;69.40
68485;DHT22;55472;50.060;21.960;2022-07-10T06:07:35;17.20;69.60
68485;DHT22;55472;50.060;21.960;2022-07-10T06:10:02;17.30;69.90
68485;DHT22;55472;50.060;21.960;2022-07-10T06:12:29;17.30;69.50
68485;DHT22;55472;50.060;21.960;2022-07-10T06:14:56;17.40;70.00
68485;DHT22;55472;50.060;21.960;2022-07-10T06:17:22;17.50;70.00
68485;DHT22;55472;50.060;21.960;2022-07-10T06:19:48;17.60;69.80
68485;DHT22;55472;50.060;21.960;2022-07-10T06:22:13;17.60;69.50
68485;DHT22;55472;50.060;21.960;2022-07-10T06:24:59;17.70;69.10
68485;DHT22;55472;50.060;21.960;2022-07-10T06:27:27;17.70;69.40
68485;DHT22;55472;50.060;21.960;2022-07-10T06:29:53;17.70;69.30
68485;DHT22;55472;50.060;21.960;2022-07-10T06:32:19;17.80;69.10
68485;DHT22;55472;50.060;21.960;2022-07-10T06:34:45;17.90;68.60
68485;DHT22;55472;50.060;21.960;2022-07-10T06:37:11;18.00;68.10
68485;DHT22;55472;50.060;21.960;2022-07-10T06:39:37;18.10;67.10
68485;DHT22;55472;50.060;21.960;2022-07-10T06:42:03;18.10;67.50
68485;DHT22;55472;50.060;21.960;2022-07-10T06:44:30;18.20;67.70
68485;DHT22;55472;50.060;21.960;2022-07-10T06:46:57;18.30;67.90
68485;DHT22;55472;50.060;21.960;2022-07-10T06:49:42;18.40;68.00
68485;DHT22;55472;50.060;21.960;2022-07-10T06:52:09;18.50;66.90
68485;DHT22;55472;50.060;21.960;2022-07-10T06:54:35;18.60;67.70
68485;DHT22;55472;50.060;21.960;2022-07-10T06:57:01;18.70;67.20
68485;DHT22;55472;50.060;21.960;2022-07-10T06:59:27;18.90;67.10
68485;DHT22;55472;50.060;21.960;2022-07-10T07:01:53;19.10;66.40
68485;DHT22;55472;50.060;21.960;2022-07-10T07:04:19;19.30;65.40
68485;DHT22;55472;50.060;21.960;2022-07-10T07:06:45;19.50;64.60
68485;DHT22;55472;50.060;21.960;2022-07-10T07:09:12;19.80;63.30
68485;DHT22;55472;50.060;21.960;2022-07-10T07:11:38;19.90;62.40
68485;DHT22;55472;50.060;21.960;2022-07-10T07:14:04;20.00;61.40
68485;DHT22;55472;50.060;21.960;2022-07-10T07:16:30;20.10;61.80
68485;DHT22;55472;50.060;21.960;2022-07-10T07:19:09;20.10;61.20
68485;DHT22;55472;50.060;21.960;2022-07-10T07:21:43;20.20;61.00
68485;DHT22;55472;50.060;21.960;2022-07-10T07:24:28;20.30;61.20
68485;DHT22;55472;50.060;21.960;2022-07-10T07:26:54;20.50;59.70
68485;DHT22;55472;50.060;21.960;2022-07-10T07:29:20;20.70;59.40
68485;DHT22;55472;50.060;21.960;2022-07-10T07:31:46;20.80;58.60
68485;DHT22;55472;50.060;21.960;2022-07-10T07:34:12;21.00;57.40
68485;DHT22;55472;50.060;21.960;2022-07-10T07:36:38;21.10;57.50
68485;DHT22;55472;50.060;21.960;2022-07-10T07:39:05;21.20;57.40
68485;DHT22;55472;50.060;21.960;2022-07-10T07:41:30;21.30;57.30
68485;DHT22;55472;50.060;21.960;2022-07-10T07:43:56;21.40;57.20
68485;DHT22;55472;50.060;21.960;2022-07-10T07:46:23;21.50;56.40
68485;DHT22;55472;50.060;21.960;2022-07-10T07:48:49;21.60;57.10
68485;DHT22;55472;50.060;21.960;2022-07-10T07:51:15;21.60;55.90
68485;DHT22;55472;50.060;21.960;2022-07-10T07:53:41;21.60;56.30
68485;DHT22;55472;50.060;21.960;2022-07-10T07:56:07;21.70;56.30
68485;DHT22;55472;50.060;21.960;2022-07-10T07:58:33;21.80;55.80
68485;DHT22;55472;50.060;21.960;2022-07-10T08:00:59;21.80;55.90
68485;DHT22;55472;50.060;21.960;2022-07-10T08:03:25;21.80;56.50
68485;DHT22;55472;50.060;21.960;2022-07-10T08:05:51;21.90;56.30
68485;DHT22;55472;50.060;21.960;2022-07-10T08:08:17;22.00;55.20
68485;DHT22;55472;50.060;21.960;2022-07-10T08:10:43;22.00;55.00
68485;DHT22;55472;50.060;21.960;2022-07-10T08:13:09;21.90;55.10
68485;DHT22;55472;50.060;21.960;2022-07-10T08:15:35;21.60;50.50
68485;DHT22;55472;50.060;21.960;2022-07-10T08:18:01;21.30;52.30
68485;DHT22;55472;50.060;21.960;2022-07-10T08:20:29;20.80;54.70
68485;DHT22;55472;50.060;21.960;2022-07-10T08:22:56;20.20;56.70
68485;DHT22;55472;50.060;21.960;2022-07-10T08:25:23;19.70;58.20
68485;DHT22;55472;50.060;21.960;2022-07-10T08:27:49;19.10;60.00
68485;DHT22;55472;50.060;21.960;2022-07-10T08:30:16;18.60;62.20
68485;DHT22;55472;50.060;21.960;2022-07-10T08:32:42;18.10;64.60
68485;DHT22;55472;50.060;21.960;2022-07-10T08:35:09;17.70;66.50
68485;DHT22;55472;50.060;21.960;2022-07-10T08:37:43;17.30;66.90
68485;DHT22;55472;50.060;21.960;2022-07-10T08:40:11;17.10;69.00
68485;DHT22;55472;50.060;21.960;2022-07-10T08:42:39;16.80;70.70
68485;DHT22;55472;50.060;21.960;2022-07-10T08:45:06;16.60;72.30
68485;DHT22;55472;50.060;21.960;2022-07-10T08:47:36;16.50;72.70
68485;DHT22;55472;50.060;21.960;2022-07-10T08:50:05;16.40;73.90
68485;DHT22;55472;50.060;21.960;2022-07-10T08:52:34;16.40;74.50
68485;DHT22;55472;50.060;21.960;2022-07-10T08:55:13;16.50;74.60
68485;DHT22;55472;50.060;21.960;2022-07-10T08:57:39;16.50;74.70
68485;DHT22;55472;50.060;21.960;2022-07-10T09:00:07;16.40;75.50
68485;DHT22;55472;50.060;21.960;2022-07-10T09:02:33;16.50;75.80
68485;DHT22;55472;50.060;21.960;2022-07-10T09:04:59;16.50;76.30
68485;DHT22;55472;50.060;21.960;2022-07-10T09:07:37;16.50;76.30
68485;DHT22;55472;50.060;21.960;2022-07-10T09:10:08;16.60;76.60
68485;DHT22;55472;50.060;21.960;2022-07-10T09:12:58;16.70;75.90
68485;DHT22;55472;50.060;21.960;2022-07-10T09:15:28;16.90;75.50
68485;DHT22;55472;50.060;21.960;2022-07-10T09:17:59;16.90;75.90
68485;DHT22;55472;50.060;21.960;2022-07-10T09:20:31;17.00;75.70
68485;DHT22;55472;50.060;21.960;2022-07-10T09:23:20;17.10;76.10
68485;DHT22;55472;50.060;21.960;2022-07-10T09:25:50;17.30;75.50
68485;DHT22;55472;50.060;21.960;2022-07-10T09:28:19;17.40;74.40
68485;DHT22;55472;50.060;21.960;2022-07-10T09:30:46;17.50;73.50
68485;DHT22;55472;50.060;21.960;2022-07-10T09:33:24;17.60;72.30
68485;DHT22;55472;50.060;21.960;2022-07-10T09:36:07;17.80;71.80
68485;DHT22;55472;50.060;21.960;2022-07-10T09:41:25;18.10;71.10
68485;DHT22;55472;50.060;21.960;2022-07-10T09:46:24;19.00;69.70
68485;DHT22;55472;50.060;21.960;2022-07-10T09:49:07;19.60;68.90
68485;DHT22;55472;50.060;21.960;2022-07-10T09:51:41;20.80;64.80
68485;DHT22;55472;50.060;21.960;2022-07-10T09:54:09;21.00;61.70
68485;DHT22;55472;50.060;21.960;2022-07-10T09:56:45;20.90;60.60
68485;DHT22;55472;50.060;21.960;2022-07-10T09:59:14;20.70;60.50
68485;DHT22;55472;50.060;21.960;2022-07-10T10:01:49;20.60;60.80
68485;DHT22;55472;50.060;21.960;2022-07-10T10:04:20;20.60;61.90
68485;DHT22;55472;50.060;21.960;2022-07-10T10:06:51;20.80;61.90
68485;DHT22;55472;50.060;21.960;2022-07-10T10:09:26;21.60;61.10
68485;DHT22;55472;50.060;21.960;2022-07-10T10:12:02;22.90;55.50
68485;DHT22;55472;50.060;21.960;2022-07-10T10:14:31;23.70;51.70
68485;DHT22;55472;50.060;21.960;2022-07-10T10:17:00;23.80;53.10
68485;DHT22;55472;50.060;21.960;2022-07-10T10:19:26;24.10;52.00
68485;DHT22;55472;50.060;21.960;2022-07-10T10:22:12;24.30;52.40
68485;DHT22;55472;50.060;21.960;2022-07-10T10:24:39;24.40;50.20
68485;DHT22;55472;50.060;21.960;2022-07-10T10:27:08;24.30;50.30
68485;DHT22;55472;50.060;21.960;2022-07-10T10:29:36;24.10;51.00
68485;DHT22;55472;50.060;21.960;2022-07-10T10:32:03;23.90;50.50
68485;DHT22;55472;50.060;21.960;2022-07-10T10:34:44;23.50;52.40
68485;DHT22;55472;50.060;21.960;2022-07-10T10:40:02;23.30;53.20
68485;DHT22;55472;50.060;21.960;2022-07-10T10:42:40;23.30;53.20
68485;DHT22;55472;50.060;21.960;2022-07-10T10:50:51;23.30;54.00
68485;DHT22;55472;50.060;21.960;2022-07-10T10:53:27;23.00;53.70
68485;DHT22;55472;50.060;21.960;2022-07-10T11:06:49;21.80;57.30
68485;DHT22;55472;50.060;21.960;2022-07-10T11:09:32;21.80;57.80
68485;DHT22;55472;50.060;21.960;2022-07-10T11:12:09;21.60;57.30
68485;DHT22;55472;50.060;21.960;2022-07-10T11:14:39;21.50;57.70
68485;DHT22;55472;50.060;21.960;2022-07-10T11:17:08;21.20;59.20
68485;DHT22;55472;50.060;21.960;2022-07-10T11:19:39;20.80;64.70
68485;DHT22;55472;50.060;21.960;2022-07-10T11:25:31;20.00;66.90
68485;DHT22;55472;50.060;21.960;2022-07-10T11:28:32;19.80;67.50
68485;DHT22;55472;50.060;21.960;2022-07-10T11:31:04;19.60;67.80
68485;DHT22;55472;50.060;21.960;2022-07-10T11:33:42;19.50;69.50
68485;DHT22;55472;50.060;21.960;2022-07-10T11:36:20;19.30;70.10
68485;DHT22;55472;50.060;21.960;2022-07-10T11:39:05;19.20;70.50
68485;DHT22;55472;50.060;21.960;2022-07-10T11:41:32;19.20;69.90
68485;DHT22;55472;50.060;21.960;2022-07-10T11:44:03;19.20;73.20
68485;DHT22;55472;50.060;21.960;2022-07-10T11:46:31;19.10;71.20
68485;DHT22;55472;50.060;21.960;2022-07-10T11:48:59;19.20;71.30
68485;DHT22;55472;50.060;21.960;2022-07-10T11:51:34;19.10;69.80
68485;DHT22;55472;50.060;21.960;2022-07-10T11:54:13;19.00;69.80
68485;DHT22;55472;50.060;21.960;2022-07-10T11:56:49;19.20;69.30
68485;DHT22;55472;50.060;21.960;2022-07-10T11:59:24;19.30;69.00
68485;DHT22;55472;50.060;21.960;2022-07-10T12:01:52;19.30;65.00
68485;DHT22;55472;50.060;21.960;2022-07-10T12:04:20;19.40;65.60
68485;DHT22;55472;50.060;21.960;2022-07-10T12:06:51;19.40;65.40
68485;DHT22;55472;50.060;21.960;2022-07-10T12:09:23;19.40;66.30
68485;DHT22;55472;50.060;21.960;2022-07-10T12:14:32;19.20;67.40
68485;DHT22;55472;50.060;21.960;2022-07-10T12:16:59;19.30;67.20
68485;DHT22;55472;50.060;21.960;2022-07-10T12:19:27;19.40;66.00
68485;DHT22;55472;50.060;21.960;2022-07-10T12:21:57;19.50;65.20
68485;DHT22;55472;50.060;21.960;2022-07-10T12:24:24;19.70;63.20
68485;DHT22;55472;50.060;21.960;2022-07-10T12:26:51;19.80;61.20
68485;DHT22;55472;50.060;21.960;2022-07-10T12:31:44;19.80;60.70
68485;DHT22;55472;50.060;21.960;2022-07-10T12:34:12;19.80;61.00
68485;DHT22;55472;50.060;21.960;2022-07-10T12:36:52;19.80;60.30
68485;DHT22;55472;50.060;21.960;2022-07-10T12:39:23;19.80;59.10
68485;DHT22;55472;50.060;21.960;2022-07-10T12:42:01;19.90;59.40
68485;DHT22;55472;50.060;21.960;2022-07-10T12:44:43;19.90;57.90
68485;DHT22;55472;50.060;21.960;2022-07-10T12:47:15;19.90;57.10
68485;DHT22;55472;50.060;21.960;2022-07-10T12:50:04;20.00;57.20
68485;DHT22;55472;50.060;21.960;2022-07-10T12:52:35;20.00;57.90
68485;DHT22;55472;50.060;21.960;2022-07-10T12:55:16;20.10;57.50
68485;DHT22;55472;50.060;21.960;2022-07-10T13:00:35;20.20;54.60
68485;DHT22;55472;50.060;21.960;2022-07-10T13:03:04;20.20;56.10
68485;DHT22;55472;50.060;21.960;2022-07-10T13:05:37;20.20;57.10
68485;DHT22;55472;50.060;21.960;2022-07-10T13:08:13;20.20;56.60
68485;DHT22;55472;50.060;21.960;2022-07-10T13:13:17;20.20;55.60
68485;DHT22;55472;50.060;21.960;2022-07-10T13:15:44;20.20;56.10
68485;DHT22;55472;50.060;21.960;2022-07-10T13:18:17;20.10;55.50
68485;DHT22;55472;50.060;21.960;2022-07-10T13:20:45;20.00;55.80
68485;DHT22;55472;50.060;21.960;2022-07-10T13:23:11;20.10;55.90
68485;DHT22;55472;50.060;21.960;2022-07-10T13:25:38;20.00;56.30
68485;DHT22;55472;50.060;21.960;2022-07-10T13:28:08;20.10;55.60
68485;DHT22;55472;50.060;21.960;2022-07-10T13:30:35;20.10;55.90
68485;DHT22;55472;50.060;21.960;2022-07-10T13:33:01;20.10;56.00
68485;DHT22;55472;50.060;21.960;2022-07-10T13:35:29;20.10;56.30
68485;DHT22;55472;50.060;21.960;2022-07-10T13:37:59;20.00;55.60
68485;DHT22;55472;50.060;21.960;2022-07-10T13:40:29;20.00;57.70
68485;DHT22;55472;50.060;21.960;2022-07-10T13:42:57;19.90;57.20
68485;DHT22;55472;50.060;21.960;2022-07-10T13:45:23;20.00;56.10
68485;DHT22;55472;50.060;21.960;2022-07-10T13:47:51;20.00;56.50
68485;DHT22;55472;50.060;21.960;2022-07-10T13:50:21;20.00;56.40
68485;DHT22;55472;50.060;21.960;2022-07-10T13:52:47;20.10;55.80
68485;DHT22;55472;50.060;21.960;2022-07-10T13:55:13;20.00;56.00
68485;DHT22;55472;50.060;21.960;2022-07-10T13:57:39;20.00;56.50
68485;DHT22;55472;50.060;21.960;2022-07-10T14:00:06;20.10;56.60
68485;DHT22;55472;50.060;21.960;2022-07-10T14:02:32;20.10;56.70
68485;DHT22;55472;50.060;21.960;2022-07-10T14:05:00;20.20;55.90
68485;DHT22;55472;50.060;21.960;2022-07-10T14:07:26;20.10;55.90
68485;DHT22;55472;50.060;21.960;2022-07-10T14:09:51;20.10;56.40
68485;DHT22;55472;50.060;21.960;2022-07-10T14:12:18;20.10;56.30
68485;DHT22;55472;50.060;21.960;2022-07-10T14:14:44;20.10;56.20
68485;DHT22;55472;50.060;21.960;2022-07-10T14:17:09;20.00;56.20
68485;DHT22;55472;50.060;21.960;2022-07-10T14:19:36;20.00;57.00
68485;DHT22;55472;50.060;21.960;2022-07-10T14:22:02;19.90;57.30
68485;DHT22;55472;50.060;21.960;2022-07-10T14:24:28;19.90;58.10
68485;DHT22;55472;50.060;21.960;2022-07-10T14:26:54;19.90;58.00
68485;DHT22;55472;50.060;21.960;2022-07-10T14:29:20;20.00;58.10
68485;DHT22;55472;50.060;21.960;2022-07-10T14:31:46;20.20;57.60
68485;DHT22;55472;50.060;21.960;2022-07-10T14:34:15;20.40;57.10
68485;DHT22;55472;50.060;21.960;2022-07-10T14:36:41;20.50;56.40
68485;DHT22;55472;50.060;21.960;2022-07-10T14:39:07;20.50;55.80
68485;DHT22;55472;50.060;21.960;2022-07-10T14:41:34;20.50;55.70
68485;DHT22;55472;50.060;21.960;2022-07-10T14:44:00;20.50;56.20
68485;DHT22;55472;50.060;21.960;2022-07-10T14:46:26;20.50;56.30
68485;DHT22;55472;50.060;21.960;2022-07-10T14:48:52;20.40;57.30
68485;DHT22;55472;50.060;21.960;2022-07-10T14:51:18;20.30;57.50
68485;DHT22;55472;50.060;21.960;2022-07-10T14:53:44;20.30;58.90
68485;DHT22;55472;50.060;21.960;2022-07-10T14:56:12;20.20;58.60
68485;DHT22;55472;50.060;21.960;2022-07-10T14:58:41;20.30;57.90
68485;DHT22;55472;50.060;21.960;2022-07-10T15:01:08;20.40;57.40
68485;DHT22;55472;50.060;21.960;2022-07-10T15:03:37;20.40;56.70
68485;DHT22;55472;50.060;21.960;2022-07-10T15:06:06;20.40;57.80
68485;DHT22;55472;50.060;21.960;2022-07-10T15:08:33;20.40;57.80
68485;DHT22;55472;50.060;21.960;2022-07-10T15:10:59;20.30;57.60
68485;DHT22;55472;50.060;21.960;2022-07-10T15:13:29;20.40;57.80
68485;DHT22;55472;50.060;21.960;2022-07-10T15:15:55;20.30;57.90
68485;DHT22;55472;50.060;21.960;2022-07-10T15:18:21;20.30;57.60
68485;DHT22;55472;50.060;21.960;2022-07-10T15:20:47;20.30;57.70
68485;DHT22;55472;50.060;21.960;2022-07-10T15:23:14;20.40;58.00
68485;DHT22;55472;50.060;21.960;2022-07-10T15:25:41;20.40;57.40
68485;DHT22;55472;50.060;21.960;2022-07-10T15:28:08;20.30;56.90
68485;DHT22;55472;50.060;21.960;2022-07-10T15:30:35;20.30;57.20
68485;DHT22;55472;50.060;21.960;2022-07-10T15:33:03;20.40;56.60
68485;DHT22;55472;50.060;21.960;2022-07-10T15:35:30;20.40;56.30
68485;DHT22;55472;50.060;21.960;2022-07-10T15:37:57;20.40;56.40
68485;DHT22;55472;50.060;21.960;2022-07-10T15:40:26;20.40;56.80
68485;DHT22;55472;50.060;21.960;2022-07-10T15:42:52;20.40;56.90
68485;DHT22;55472;50.060;21.960;2022-07-10T15:45:18;20.40;57.00
68485;DHT22;55472;50.060;21.960;2022-07-10T15:47:44;20.40;57.50
68485;DHT22;55472;50.060;21.960;2022-07-10T15:50:10;20.50;57.90
68485;DHT22;55472;50.060;21.960;2022-07-10T15:52:36;20.60;56.90
68485;DHT22;55472;50.060;21.960;2022-07-10T15:55:02;20.60;56.90
68485;DHT22;55472;50.060;21.960;2022-07-10T15:57:28;20.70;51.50
68485;DHT22;55472;50.060;21.960;2022-07-10T15:59:54;20.70;50.30